sensor_id;sensor_type;location;lat;lon;timestamp;pressure;altitude;pressure_sealevel;temperature;humidity
58534;BME280;44109;52.398;7.024;2023-03-22T00:01:20;100699.41;;;10.53;100.00
58534;BME280;44109;52.398;7.024;2023-03-22T00:03:50;100688.75;;;10.55;100.00
58534;BME280;44109;52.398;7.024;2023-03-22T00:06:18;100688.69;;;10.52;100.00
58534;BME280;44109;52.398;7.024;2023-03-22T00:08:49;100673.91;;;10.44;100.00
58534;BME280;44109;52.398;7.024;2023-03-22T00:11:19;100689.28;;;10.64;100.00
58534;BME280;44109;52.398;7.024;2023-03-22T00:13:49;100683.13;;;10.52;100.00
58534;BME280;44109;52.398;7.024;2023-03-22T00:16:18;100682.88;;;10.60;100.00
58534;BME280;44109;52.398;7.024;2023-03-22T00:18:46;100684.47;;;10.61;100.00
58534;BME280;44109;52.398;7.024;2023-03-22T00:21:15;100695.50;;;10.58;100.00
58534;BME280;44109;52.398;7.024;2023-03-22T00:23:43;100682.81;;;10.57;100.00
58534;BME280;44109;52.398;7.024;2023-03-22T00:26:13;100680.50;;;10.59;100.00
58534;BME280;44109;52.398;7.024;2023-03-22T00:28:41;100679.94;;;10.50;100.00
58534;BME280;44109;52.398;7.024;2023-03-22T00:31:10;100673.69;;;10.56;100.00
58534;BME280;44109;52.398;7.024;2023-03-22T00:33:37;100675.00;;;10.39;100.00
58534;BME280;44109;52.398;7.024;2023-03-22T00:36:10;100676.91;;;10.35;100.00
58534;BME280;44109;52.398;7.024;2023-03-22T00:38:39;100667.25;;;10.26;100.00
58534;BME280;44109;52.398;7.024;2023-03-22T00:41:07;100662.09;;;10.24;100.00
58534;BME280;44109;52.398;7.024;2023-03-22T00:43:38;100676.25;;;10.19;100.00
58534;BME280;44109;52.398;7.024;2023-03-22T00:46:07;100663.75;;;10.06;100.00
58534;BME280;44109;52.398;7.024;2023-03-22T00:48:35;100676.25;;;10.19;100.00
58534;BME280;44109;52.398;7.024;2023-03-22T00:51:04;100672.59;;;10.15;100.00
58534;BME280;44109;52.398;7.024;2023-03-22T00:53:32;100667.44;;;10.13;100.00
58534;BME280;44109;52.398;7.024;2023-03-22T00:56:02;100660.97;;;10.06;100.00
58534;BME280;44109;52.398;7.024;2023-03-22T00:58:30;100668.91;;;10.07;100.00
58534;BME280;44109;52.398;7.024;2023-03-22T01:00:59;100665.72;;;10.05;100.00
58534;BME280;44109;52.398;7.024;2023-03-22T01:03:30;100658.94;;;10.03;100.00
58534;BME280;44109;52.398;7.024;2023-03-22T01:05:58;100660.84;;;9.99;100.00
58534;BME280;44109;52.398;7.024;2023-03-22T01:08:26;100654.16;;;10.00;100.00
58534;BME280;44109;52.398;7.024;2023-03-22T01:10:58;100654.88;;;9.97;100.00
58534;BME280;44109;52.398;7.024;2023-03-22T01:13:26;100648.72;;;10.07;100.00
58534;BME280;44109;52.398;7.024;2023-03-22T01:15:54;100649.09;;;10.05;100.00
58534;BME280;44109;52.398;7.024;2023-03-22T01:18:25;100644.59;;;9.97;100.00
58534;BME280;44109;52.398;7.024;2023-03-22T01:20:53;100613.19;;;9.89;100.00
58534;BME280;44109;52.398;7.024;2023-03-22T01:23:21;100644.03;;;10.11;100.00
58534;BME280;44109;52.398;7.024;2023-03-22T01:25:48;100617.81;;;10.05;100.00
58534;BME280;44109;52.398;7.024;2023-03-22T01:28:16;100637.56;;;10.26;100.00
58534;BME280;44109;52.398;7.024;2023-03-22T01:30:44;100640.47;;;10.33;100.00
58534;BME280;44109;52.398;7.024;2023-03-22T01:33:11;100642.81;;;10.31;100.00
58534;BME280;44109;52.398;7.024;2023-03-22T01:35:40;100638.66;;;10.45;100.00
58534;BME280;44109;52.398;7.024;2023-03-22T01:38:08;100637.25;;;10.58;100.00
58534;BME280;44109;52.398;7.024;2023-03-22T01:40:36;100616.69;;;10.32;100.00
58534;BME280;44109;52.398;7.024;2023-03-22T01:43:10;100620.47;;;10.47;100.00
58534;BME280;44109;52.398;7.024;2023-03-22T01:45:42;100624.91;;;10.52;100.00
58534;BME280;44109;52.398;7.024;2023-03-22T01:48:17;100627.25;;;10.50;100.00
58534;BME280;44109;52.398;7.024;2023-03-22T01:50:57;100619.78;;;10.54;100.00
58534;BME280;44109;52.398;7.024;2023-03-22T01:53:32;100617.44;;;10.56;100.00
58534;BME280;44109;52.398;7.024;2023-03-22T01:56:03;100602.91;;;10.66;100.00
58534;BME280;44109;52.398;7.024;2023-03-22T01:58:33;100606.84;;;10.65;100.00
58534;BME280;44109;52.398;7.024;2023-03-22T02:01:04;100600.47;;;10.61;100.00
58534;BME280;44109;52.398;7.024;2023-03-22T02:03:39;100579.66;;;10.48;100.00
58534;BME280;44109;52.398;7.024;2023-03-22T02:06:14;100594.31;;;10.75;100.00
58534;BME280;44109;52.398;7.024;2023-03-22T02:08:42;100585.41;;;10.62;100.00
58534;BME280;44109;52.398;7.024;2023-03-22T02:11:13;100582.31;;;10.67;100.00
58534;BME280;44109;52.398;7.024;2023-03-22T02:14:10;100574.66;;;10.57;100.00
58534;BME280;44109;52.398;7.024;2023-03-22T02:16:57;100568.31;;;10.56;100.00
58534;BME280;44109;52.398;7.024;2023-03-22T02:23:49;100567.81;;;10.81;100.00
58534;BME280;44109;52.398;7.024;2023-03-22T02:30:43;100554.28;;;10.76;100.00
58534;BME280;44109;52.398;7.024;2023-03-22T02:33:45;100561.28;;;10.66;100.00
58534;BME280;44109;52.398;7.024;2023-03-22T02:36:53;100546.72;;;10.73;100.00
58534;BME280;44109;52.398;7.024;2023-03-22T02:40:02;100545.94;;;10.72;100.00
58534;BME280;44109;52.398;7.024;2023-03-22T02:42:43;100543.38;;;10.60;100.00
58534;BME280;44109;52.398;7.024;2023-03-22T02:45:23;100550.53;;;10.61;100.00
58534;BME280;44109;52.398;7.024;2023-03-22T02:48:02;100544.94;;;10.57;100.00
58534;BME280;44109;52.398;7.024;2023-03-22T02:50:38;100542.31;;;10.68;100.00
58534;BME280;44109;52.398;7.024;2023-03-22T02:53:15;100548.16;;;10.59;100.00
58534;BME280;44109;52.398;7.024;2023-03-22T02:55:50;100543.47;;;10.67;100.00
58534;BME280;44109;52.398;7.024;2023-03-22T02:58:25;100527.41;;;10.50;100.00
58534;BME280;44109;52.398;7.024;2023-03-22T03:00:59;100539.38;;;10.57;100.00
58534;BME280;44109;52.398;7.024;2023-03-22T03:03:31;100531.56;;;10.66;100.00
58534;BME280;44109;52.398;7.024;2023-03-22T03:06:05;100530.03;;;10.69;100.00
58534;BME280;44109;52.398;7.024;2023-03-22T03:08:40;100534.16;;;10.82;100.00
58534;BME280;44109;52.398;7.024;2023-03-22T03:11:10;100523.47;;;10.84;100.00
58534;BME280;44109;52.398;7.024;2023-03-22T03:13:37;100525.00;;;10.78;100.00
58534;BME280;44109;52.398;7.024;2023-03-22T03:16:05;100524.56;;;10.76;100.00
58534;BME280;44109;52.398;7.024;2023-03-22T03:18:41;100526.81;;;10.67;100.00
58534;BME280;44109;52.398;7.024;2023-03-22T03:21:22;100515.31;;;10.65;100.00
58534;BME280;44109;52.398;7.024;2023-03-22T03:24:05;100512.22;;;10.70;100.00
58534;BME280;44109;52.398;7.024;2023-03-22T03:26:50;100505.13;;;10.73;100.00
58534;BME280;44109;52.398;7.024;2023-03-22T03:29:30;100503.09;;;10.70;100.00
58534;BME280;44109;52.398;7.024;2023-03-22T03:32:08;100491.88;;;10.59;100.00
58534;BME280;44109;52.398;7.024;2023-03-22T03:34:45;100495.00;;;10.57;100.00
58534;BME280;44109;52.398;7.024;2023-03-22T03:37:20;100504.47;;;10.53;100.00
58534;BME280;44109;52.398;7.024;2023-03-22T03:39:56;100495.72;;;10.51;100.00
58534;BME280;44109;52.398;7.024;2023-03-22T03:42:33;100492.50;;;10.45;100.00
58534;BME280;44109;52.398;7.024;2023-03-22T03:45:06;100484.97;;;10.46;100.00
58534;BME280;44109;52.398;7.024;2023-03-22T03:47:36;100484.63;;;10.51;100.00
58534;BME280;44109;52.398;7.024;2023-03-22T03:50:04;100482.28;;;10.53;100.00
58534;BME280;44109;52.398;7.024;2023-03-22T03:52:33;100485.81;;;10.50;100.00
58534;BME280;44109;52.398;7.024;2023-03-22T03:55:01;100485.38;;;10.48;100.00
58534;BME280;44109;52.398;7.024;2023-03-22T03:57:29;100489.34;;;10.47;100.00
58534;BME280;44109;52.398;7.024;2023-03-22T03:59:58;100494.03;;;10.43;100.00
58534;BME280;44109;52.398;7.024;2023-03-22T04:02:26;100486.19;;;10.48;100.00
58534;BME280;44109;52.398;7.024;2023-03-22T04:04:53;100487.56;;;10.31;100.00
58534;BME280;44109;52.398;7.024;2023-03-22T04:07:21;100485.44;;;10.51;100.00
58534;BME280;44109;52.398;7.024;2023-03-22T04:09:49;100481.94;;;10.58;100.00
58534;BME280;44109;52.398;7.024;2023-03-22T04:12:16;100468.13;;;10.61;100.00
58534;BME280;44109;52.398;7.024;2023-03-22T04:14:44;100479.25;;;10.65;100.00
58534;BME280;44109;52.398;7.024;2023-03-22T04:17:13;100464.13;;;10.59;100.00
58534;BME280;44109;52.398;7.024;2023-03-22T04:19:41;100479.84;;;10.48;100.00
58534;BME280;44109;52.398;7.024;2023-03-22T04:22:09;100475.88;;;10.49;100.00
58534;BME280;44109;52.398;7.024;2023-03-22T04:24:39;100469.69;;;10.59;100.00
58534;BME280;44109;52.398;7.024;2023-03-22T04:27:07;100481.13;;;10.54;100.00
58534;BME280;44109;52.398;7.024;2023-03-22T04:29:35;100470.03;;;10.57;100.00
58534;BME280;44109;52.398;7.024;2023-03-22T04:32:03;100465.28;;;10.58;100.00
58534;BME280;44109;52.398;7.024;2023-03-22T04:34:32;100471.69;;;10.62;100.00
58534;BME280;44109;52.398;7.024;2023-03-22T04:37:00;100470.44;;;10.56;100.00
58534;BME280;44109;52.398;7.024;2023-03-22T04:39:28;100457.78;;;10.58;100.00
58534;BME280;44109;52.398;7.024;2023-03-22T04:41:56;100459.84;;;10.65;100.00
58534;BME280;44109;52.398;7.024;2023-03-22T04:44:23;100473.81;;;10.72;100.00
58534;BME280;44109;52.398;7.024;2023-03-22T04:46:51;100453.19;;;10.73;100.00
58534;BME280;44109;52.398;7.024;2023-03-22T04:49:18;100441.16;;;10.58;100.00
58534;BME280;44109;52.398;7.024;2023-03-22T04:51:48;100458.75;;;10.73;100.00
58534;BME280;44109;52.398;7.024;2023-03-22T04:54:15;100453.56;;;10.72;100.00
58534;BME280;44109;52.398;7.024;2023-03-22T04:56:43;100450.59;;;10.54;100.00
58534;BME280;44109;52.398;7.024;2023-03-22T04:59:11;100448.50;;;10.77;100.00
58534;BME280;44109;52.398;7.024;2023-03-22T05:01:39;100451.72;;;10.83;100.00
58534;BME280;44109;52.398;7.024;2023-03-22T05:04:07;100423.38;;;10.63;100.00
58534;BME280;44109;52.398;7.024;2023-03-22T05:06:35;100445.78;;;10.84;100.00
58534;BME280;44109;52.398;7.024;2023-03-22T05:09:04;100444.34;;;10.98;100.00
58534;BME280;44109;52.398;7.024;2023-03-22T05:11:32;100429.81;;;10.74;100.00
58534;BME280;44109;52.398;7.024;2023-03-22T05:13:59;100442.44;;;11.05;100.00
58534;BME280;44109;52.398;7.024;2023-03-22T05:16:27;100437.19;;;10.97;100.00
58534;BME280;44109;52.398;7.024;2023-03-22T05:18:55;100441.16;;;10.96;100.00
58534;BME280;44109;52.398;7.024;2023-03-22T05:21:24;100443.09;;;10.91;100.00
58534;BME280;44109;52.398;7.024;2023-03-22T05:23:55;100442.66;;;10.86;100.00
58534;BME280;44109;52.398;7.024;2023-03-22T05:26:26;100440.91;;;10.74;100.00
58534;BME280;44109;52.398;7.024;2023-03-22T05:28:54;100417.31;;;10.54;100.00
58534;BME280;44109;52.398;7.024;2023-03-22T05:31:22;100410.75;;;10.69;100.00
58534;BME280;44109;52.398;7.024;2023-03-22T05:33:50;100431.75;;;10.70;100.00
58534;BME280;44109;52.398;7.024;2023-03-22T05:36:19;100437.69;;;10.69;100.00
58534;BME280;44109;52.398;7.024;2023-03-22T05:38:49;100431.84;;;10.44;100.00
58534;BME280;44109;52.398;7.024;2023-03-22T05:41:16;100423.69;;;10.58;100.00
58534;BME280;44109;52.398;7.024;2023-03-22T05:43:46;100434.03;;;10.61;100.00
58534;BME280;44109;52.398;7.024;2023-03-22T05:46:13;100374.09;;;10.19;100.00
58534;BME280;44109;52.398;7.024;2023-03-22T05:48:41;100412.19;;;10.56;100.00
58534;BME280;44109;52.398;7.024;2023-03-22T05:51:10;100410.84;;;10.43;100.00
58534;BME280;44109;52.398;7.024;2023-03-22T05:53:42;100410.69;;;10.28;100.00
58534;BME280;44109;52.398;7.024;2023-03-22T05:56:10;100422.44;;;10.52;100.00
58534;BME280;44109;52.398;7.024;2023-03-22T05:58:38;100416.25;;;10.65;100.00
58534;BME280;44109;52.398;7.024;2023-03-22T06:01:09;100410.66;;;10.62;100.00
58534;BME280;44109;52.398;7.024;2023-03-22T06:03:41;100423.66;;;10.91;100.00
58534;BME280;44109;52.398;7.024;2023-03-22T06:06:09;100419.47;;;10.68;100.00
58534;BME280;44109;52.398;7.024;2023-03-22T06:08:37;100416.69;;;10.68;100.00
58534;BME280;44109;52.398;7.024;2023-03-22T06:11:06;100415.59;;;10.79;100.00
58534;BME280;44109;52.398;7.024;2023-03-22T06:13:35;100415.25;;;10.84;100.00
58534;BME280;44109;52.398;7.024;2023-03-22T06:16:04;100411.94;;;10.72;100.00
58534;BME280;44109;52.398;7.024;2023-03-22T06:18:33;100415.88;;;10.67;100.00
58534;BME280;44109;52.398;7.024;2023-03-22T06:21:01;100414.78;;;10.75;100.00
58534;BME280;44109;52.398;7.024;2023-03-22T06:23:29;100412.13;;;10.86;100.00
58534;BME280;44109;52.398;7.024;2023-03-22T06:25:56;100413.59;;;10.76;100.00
58534;BME280;44109;52.398;7.024;2023-03-22T06:28:24;100416.00;;;10.78;100.00
58534;BME280;44109;52.398;7.024;2023-03-22T06:30:54;100401.25;;;10.70;100.00
58534;BME280;44109;52.398;7.024;2023-03-22T06:33:22;100403.31;;;10.80;100.00
58534;BME280;44109;52.398;7.024;2023-03-22T06:35:51;100399.31;;;10.74;100.00
58534;BME280;44109;52.398;7.024;2023-03-22T06:38:19;100409.53;;;10.66;100.00
58534;BME280;44109;52.398;7.024;2023-03-22T06:40:46;100403.81;;;10.52;100.00
58534;BME280;44109;52.398;7.024;2023-03-22T06:43:14;100408.78;;;10.70;100.00
58534;BME280;44109;52.398;7.024;2023-03-22T06:45:41;100397.53;;;10.55;100.00
58534;BME280;44109;52.398;7.024;2023-03-22T06:48:09;100401.09;;;10.56;100.00
58534;BME280;44109;52.398;7.024;2023-03-22T06:50:37;100396.38;;;10.60;100.00
58534;BME280;44109;52.398;7.024;2023-03-22T06:53:07;100400.78;;;10.64;100.00
58534;BME280;44109;52.398;7.024;2023-03-22T06:55:35;100386.47;;;10.59;100.00
58534;BME280;44109;52.398;7.024;2023-03-22T06:58:03;100399.13;;;10.56;100.00
58534;BME280;44109;52.398;7.024;2023-03-22T07:00:30;100400.41;;;10.66;100.00
58534;BME280;44109;52.398;7.024;2023-03-22T07:02:59;100404.75;;;10.67;100.00
58534;BME280;44109;52.398;7.024;2023-03-22T07:05:27;100389.75;;;10.72;100.00
58534;BME280;44109;52.398;7.024;2023-03-22T07:07:54;100391.78;;;10.75;100.00
58534;BME280;44109;52.398;7.024;2023-03-22T07:10:23;100394.66;;;10.85;100.00
58534;BME280;44109;52.398;7.024;2023-03-22T07:12:51;100400.31;;;10.96;100.00
58534;BME280;44109;52.398;7.024;2023-03-22T07:15:19;100404.88;;;11.18;100.00
58534;BME280;44109;52.398;7.024;2023-03-22T07:17:49;100408.69;;;11.51;100.00
58534;BME280;44109;52.398;7.024;2023-03-22T07:20:18;100402.53;;;11.79;100.00
58534;BME280;44109;52.398;7.024;2023-03-22T07:22:46;100393.59;;;12.11;100.00
58534;BME280;44109;52.398;7.024;2023-03-22T07:25:16;100384.44;;;12.07;100.00
58534;BME280;44109;52.398;7.024;2023-03-22T07:27:45;100390.91;;;12.39;100.00
58534;BME280;44109;52.398;7.024;2023-03-22T07:30:12;100378.28;;;12.60;100.00
58534;BME280;44109;52.398;7.024;2023-03-22T07:32:40;100377.13;;;12.79;100.00
58534;BME280;44109;52.398;7.024;2023-03-22T07:35:08;100366.03;;;13.04;100.00
58534;BME280;44109;52.398;7.024;2023-03-22T07:37:36;100375.56;;;13.38;100.00
58534;BME280;44109;52.398;7.024;2023-03-22T07:40:05;100372.38;;;13.43;100.00
58534;BME280;44109;52.398;7.024;2023-03-22T07:42:48;100372.41;;;13.33;100.00
58534;BME280;44109;52.398;7.024;2023-03-22T07:45:17;100375.16;;;13.01;100.00
58534;BME280;44109;52.398;7.024;2023-03-22T07:47:46;100371.97;;;13.02;100.00
58534;BME280;44109;52.398;7.024;2023-03-22T07:50:14;100368.75;;;12.79;100.00
58534;BME280;44109;52.398;7.024;2023-03-22T07:52:44;100378.31;;;12.88;100.00
58534;BME280;44109;52.398;7.024;2023-03-22T07:55:13;100373.56;;;12.82;100.00
58534;BME280;44109;52.398;7.024;2023-03-22T07:57:41;100366.31;;;12.52;100.00
58534;BME280;44109;52.398;7.024;2023-03-22T08:00:11;100357.97;;;12.49;100.00
58534;BME280;44109;52.398;7.024;2023-03-22T08:02:39;100391.03;;;12.75;100.00
58534;BME280;44109;52.398;7.024;2023-03-22T08:05:07;100382.28;;;12.84;100.00
58534;BME280;44109;52.398;7.024;2023-03-22T08:07:35;100390.66;;;12.77;100.00
58534;BME280;44109;52.398;7.024;2023-03-22T08:10:03;100398.91;;;12.52;100.00
58534;BME280;44109;52.398;7.024;2023-03-22T08:12:31;100387.91;;;13.09;100.00
58534;BME280;44109;52.398;7.024;2023-03-22T08:14:59;100389.41;;;12.70;100.00
58534;BME280;44109;52.398;7.024;2023-03-22T08:17:29;100381.50;;;12.83;100.00
58534;BME280;44109;52.398;7.024;2023-03-22T08:19:57;100387.03;;;12.76;100.00
58534;BME280;44109;52.398;7.024;2023-03-22T08:22:24;100393.81;;;12.75;100.00
58534;BME280;44109;52.398;7.024;2023-03-22T08:24:55;100385.44;;;12.64;100.00
58534;BME280;44109;52.398;7.024;2023-03-22T08:27:22;100386.97;;;12.40;100.00
58534;BME280;44109;52.398;7.024;2023-03-22T08:29:50;100386.13;;;12.22;100.00
58534;BME280;44109;52.398;7.024;2023-03-22T08:32:18;100387.38;;;12.42;100.00
58534;BME280;44109;52.398;7.024;2023-03-22T08:34:47;100390.91;;;12.39;100.00
58534;BME280;44109;52.398;7.024;2023-03-22T08:37:14;100383.25;;;12.04;100.00
58534;BME280;44109;52.398;7.024;2023-03-22T08:39:45;100382.03;;;11.95;100.00
58534;BME280;44109;52.398;7.024;2023-03-22T08:42:13;100388.84;;;12.15;100.00
58534;BME280;44109;52.398;7.024;2023-03-22T08:44:40;100385.34;;;12.32;100.00
58534;BME280;44109;52.398;7.024;2023-03-22T08:47:08;100399.59;;;12.13;100.00
58534;BME280;44109;52.398;7.024;2023-03-22T08:49:36;100390.91;;;12.39;100.00
58534;BME280;44109;52.398;7.024;2023-03-22T08:52:05;100393.13;;;11.95;100.00
58534;BME280;44109;52.398;7.024;2023-03-22T08:54:33;100395.13;;;11.98;100.00
58534;BME280;44109;52.398;7.024;2023-03-22T08:57:01;100385.19;;;11.97;100.00
58534;BME280;44109;52.398;7.024;2023-03-22T08:59:29;100382.06;;;12.12;100.00
58534;BME280;44109;52.398;7.024;2023-03-22T09:01:59;100399.19;;;12.18;100.00
58534;BME280;44109;52.398;7.024;2023-03-22T09:04:27;100386.97;;;12.37;100.00
58534;BME280;44109;52.398;7.024;2023-03-22T09:06:55;100389.03;;;12.68;100.00
58534;BME280;44109;52.398;7.024;2023-03-22T09:09:24;100383.84;;;12.70;100.00
58534;BME280;44109;52.398;7.024;2023-03-22T09:11:52;100387.81;;;12.62;100.00
58534;BME280;44109;52.398;7.024;2023-03-22T09:14:20;100392.56;;;12.55;100.00
58534;BME280;44109;52.398;7.024;2023-03-22T09:16:47;100371.84;;;12.34;100.00
58534;BME280;44109;52.398;7.024;2023-03-22T09:19:16;100401.94;;;12.11;100.00
58534;BME280;44109;52.398;7.024;2023-03-22T09:21:44;100398.03;;;12.26;100.00
58534;BME280;44109;52.398;7.024;2023-03-22T09:24:11;100387.78;;;12.41;100.00
58534;BME280;44109;52.398;7.024;2023-03-22T09:26:40;100377.38;;;12.31;100.00
58534;BME280;44109;52.398;7.024;2023-03-22T09:29:08;100367.94;;;12.50;100.00
58534;BME280;44109;52.398;7.024;2023-03-22T09:31:36;100360.00;;;12.69;100.00
58534;BME280;44109;52.398;7.024;2023-03-22T09:34:04;100381.50;;;12.83;100.00
58534;BME280;44109;52.398;7.024;2023-03-22T09:36:31;100364.41;;;13.03;100.00
58534;BME280;44109;52.398;7.024;2023-03-22T09:38:59;100356.06;;;13.38;100.00
58534;BME280;44109;52.398;7.024;2023-03-22T09:41:35;100362.84;;;13.41;100.00
58534;BME280;44109;52.398;7.024;2023-03-22T09:44:12;100360.06;;;13.23;100.00
58534;BME280;44109;52.398;7.024;2023-03-22T09:46:47;100359.22;;;13.12;100.00
58534;BME280;44109;52.398;7.024;2023-03-22T09:49:23;100343.28;;;13.66;100.00
58534;BME280;44109;52.398;7.024;2023-03-22T09:51:55;100351.28;;;13.50;100.00
58534;BME280;44109;52.398;7.024;2023-03-22T09:54:31;100360.06;;;13.44;100.00
58534;BME280;44109;52.398;7.024;2023-03-22T09:57:04;100360.00;;;13.66;100.00
58534;BME280;44109;52.398;7.024;2023-03-22T09:59:43;100358.25;;;14.11;100.00
58534;BME280;44109;52.398;7.024;2023-03-22T10:02:36;100348.38;;;14.00;100.00
58534;BME280;44109;52.398;7.024;2023-03-22T10:05:17;100351.59;;;13.91;100.00
58534;BME280;44109;52.398;7.024;2023-03-22T10:08:19;100354.25;;;14.19;100.00
58534;BME280;44109;52.398;7.024;2023-03-22T10:10:55;100351.81;;;14.29;100.00
58534;BME280;44109;52.398;7.024;2023-03-22T10:13:29;100359.53;;;14.00;96.42
58534;BME280;44109;52.398;7.024;2023-03-22T10:16:05;100351.16;;;13.92;99.05
58534;BME280;44109;52.398;7.024;2023-03-22T10:18:40;100354.44;;;13.66;98.94
58534;BME280;44109;52.398;7.024;2023-03-22T10:21:13;100339.34;;;13.42;99.33
58534;BME280;44109;52.398;7.024;2023-03-22T10:23:45;100348.91;;;13.44;99.68
58534;BME280;44109;52.398;7.024;2023-03-22T10:26:19;100348.09;;;13.44;100.00
58534;BME280;44109;52.398;7.024;2023-03-22T10:28:56;100348.91;;;13.44;100.00
58534;BME280;44109;52.398;7.024;2023-03-22T10:31:30;100352.88;;;13.43;100.00
58534;BME280;44109;52.398;7.024;2023-03-22T10:34:02;100348.00;;;13.83;100.00
58534;BME280;44109;52.398;7.024;2023-03-22T10:36:34;100342.34;;;14.08;98.61
58534;BME280;44109;52.398;7.024;2023-03-22T10:39:10;100352.75;;;13.93;98.75
58534;BME280;44109;52.398;7.024;2023-03-22T10:41:43;100342.53;;;13.55;97.85
58534;BME280;44109;52.398;7.024;2023-03-22T10:44:15;100344.94;;;13.31;100.00
58534;BME280;44109;52.398;7.024;2023-03-22T10:46:47;100344.09;;;13.49;100.00
58534;BME280;44109;52.398;7.024;2023-03-22T10:49:22;100345.66;;;13.71;99.69
58534;BME280;44109;52.398;7.024;2023-03-22T10:51:55;100319.09;;;12.95;100.00
58534;BME280;44109;52.398;7.024;2023-03-22T10:54:27;100346.91;;;12.99;100.00
58534;BME280;44109;52.398;7.024;2023-03-22T10:56:54;100344.53;;;13.18;100.00
58534;BME280;44109;52.398;7.024;2023-03-22T10:59:41;100326.22;;;12.96;100.00
58534;BME280;44109;52.398;7.024;2023-03-22T11:02:22;100339.34;;;13.17;100.00
58534;BME280;44109;52.398;7.024;2023-03-22T11:04:52;100356.88;;;12.85;100.00
58534;BME280;44109;52.398;7.024;2023-03-22T11:07:31;100365.19;;;12.78;100.00
58534;BME280;44109;52.398;7.024;2023-03-22T11:10:22;100365.53;;;12.52;100.00
58534;BME280;44109;52.398;7.024;2023-03-22T11:13:15;100365.88;;;12.32;100.00
58534;BME280;44109;52.398;7.024;2023-03-22T11:15:53;100369.84;;;12.28;100.00
58534;BME280;44109;52.398;7.024;2023-03-22T11:18:28;100370.91;;;12.02;100.00
58534;BME280;44109;52.398;7.024;2023-03-22T11:20:59;100370.44;;;11.89;100.00
58534;BME280;44109;52.398;7.024;2023-03-22T11:23:33;100374.91;;;12.01;100.00
58534;BME280;44109;52.398;7.024;2023-03-22T11:26:06;100374.09;;;12.00;100.00
58534;BME280;44109;52.398;7.024;2023-03-22T11:28:41;100371.94;;;11.72;100.00
58534;BME280;44109;52.398;7.024;2023-03-22T11:31:14;100366.38;;;11.76;100.00
58534;BME280;44109;52.398;7.024;2023-03-22T11:33:55;100375.53;;;11.80;100.00
58534;BME280;44109;52.398;7.024;2023-03-22T11:36:25;100380.28;;;11.72;100.00
58534;BME280;44109;52.398;7.024;2023-03-22T11:38:57;100377.13;;;11.81;100.00
58534;BME280;44109;52.398;7.024;2023-03-22T11:41:27;100358.00;;;11.65;100.00
58534;BME280;44109;52.398;7.024;2023-03-22T11:44:00;100370.44;;;11.85;100.00
58534;BME280;44109;52.398;7.024;2023-03-22T11:46:33;100368.44;;;11.82;100.00
58534;BME280;44109;52.398;7.024;2023-03-22T11:49:06;100377.22;;;11.91;100.00
58534;BME280;44109;52.398;7.024;2023-03-22T11:51:41;100366.19;;;12.06;100.00
58534;BME280;44109;52.398;7.024;2023-03-22T11:54:13;100367.69;;;11.92;100.00
58534;BME280;44109;52.398;7.024;2023-03-22T11:56:47;100364.00;;;11.74;100.00
58534;BME280;44109;52.398;7.024;2023-03-22T11:59:22;100374.44;;;11.91;100.00
58534;BME280;44109;52.398;7.024;2023-03-22T12:01:55;100362.25;;;12.14;100.00
58534;BME280;44109;52.398;7.024;2023-03-22T12:04:33;100348.78;;;12.27;100.00
58534;BME280;44109;52.398;7.024;2023-03-22T12:07:12;100354.38;;;12.37;100.00
58534;BME280;44109;52.398;7.024;2023-03-22T12:09:43;100315.34;;;12.09;100.00
58534;BME280;44109;52.398;7.024;2023-03-22T12:12:21;100364.78;;;12.69;100.00
58534;BME280;44109;52.398;7.024;2023-03-22T12:14:56;100353.22;;;12.53;100.00
58534;BME280;44109;52.398;7.024;2023-03-22T12:17:30;100352.00;;;12.47;100.00
58534;BME280;44109;52.398;7.024;2023-03-22T12:20:11;100370.63;;;12.28;100.00
58534;BME280;44109;52.398;7.024;2023-03-22T12:22:49;100363.13;;;12.36;100.00
58534;BME280;44109;52.398;7.024;2023-03-22T12:25:23;100373.41;;;12.28;100.00
58534;BME280;44109;52.398;7.024;2023-03-22T12:27:55;100372.63;;;12.31;100.00
58534;BME280;44109;52.398;7.024;2023-03-22T12:30:27;100371.03;;;12.30;100.00
58534;BME280;44109;52.398;7.024;2023-03-22T12:33:01;100351.22;;;12.53;100.00
58534;BME280;44109;52.398;7.024;2023-03-22T12:35:41;100354.75;;;12.39;100.00
58534;BME280;44109;52.398;7.024;2023-03-22T12:38:20;100336.94;;;12.55;100.00
58534;BME280;44109;52.398;7.024;2023-03-22T12:40:54;100347.28;;;12.68;100.00
58534;BME280;44109;52.398;7.024;2023-03-22T12:43:49;100350.03;;;12.58;100.00
58534;BME280;44109;52.398;7.024;2023-03-22T12:46:22;100355.59;;;12.51;100.00
58534;BME280;44109;52.398;7.024;2023-03-22T12:48:55;100349.53;;;12.13;100.00
58534;BME280;44109;52.398;7.024;2023-03-22T12:51:30;100339.28;;;12.46;100.00
58534;BME280;44109;52.398;7.024;2023-03-22T12:53:58;100340.84;;;12.32;100.00
58534;BME280;44109;52.398;7.024;2023-03-22T12:56:32;100348.00;;;12.33;100.00
58534;BME280;44109;52.398;7.024;2023-03-22T12:59:10;100365.41;;;12.12;100.00
58534;BME280;44109;52.398;7.024;2023-03-22T13:01:45;100340.78;;;12.22;100.00
58534;BME280;44109;52.398;7.024;2023-03-22T13:04:44;100360.66;;;12.13;100.00
58534;BME280;44109;52.398;7.024;2023-03-22T13:07:34;100368.19;;;12.09;100.00
58534;BME280;44109;52.398;7.024;2023-03-22T13:10:39;100368.16;;;12.05;100.00
58534;BME280;44109;52.398;7.024;2023-03-22T13:13:42;100368.53;;;12.00;100.00